sensor_id;sensor_type;location;lat;lon;timestamp;temperature;humidity
11426;DHT22;5769;47.998;7.788;2022-07-06T00:01:53;23.00;72.50
11426;DHT22;5769;47.998;7.788;2022-07-06T00:04:20;22.90;72.40
11426;DHT22;5769;47.998;7.788;2022-07-06T00:06:47;23.00;72.50
11426;DHT22;5769;47.998;7.788;2022-07-06T00:09:14;23.00;72.60
11426;DHT22;5769;47.998;7.788;2022-07-06T00:11:41;22.90;72.50
11426;DHT22;5769;47.998;7.788;2022-07-06T00:14:09;22.90;72.50
11426;DHT22;5769;47.998;7.788;2022-07-06T00:16:36;22.90;72.50
11426;DHT22;5769;47.998;7.788;2022-07-06T00:19:03;22.90;72.60
11426;DHT22;5769;47.998;7.788;2022-07-06T00:21:29;22.90;72.60
11426;DHT22;5769;47.998;7.788;2022-07-06T00:23:56;22.90;72.50
11426;DHT22;5769;47.998;7.788;2022-07-06T00:26:23;22.90;72.60
11426;DHT22;5769;47.998;7.788;2022-07-06T00:28:50;22.90;72.50
11426;DHT22;5769;47.998;7.788;2022-07-06T00:31:18;22.90;72.50
11426;DHT22;5769;47.998;7.788;2022-07-06T00:33:45;22.90;72.60
11426;DHT22;5769;47.998;7.788;2022-07-06T00:36:12;22.90;72.60
11426;DHT22;5769;47.998;7.788;2022-07-06T00:38:39;22.80;72.50
11426;DHT22;5769;47.998;7.788;2022-07-06T00:41:05;22.80;72.60
11426;DHT22;5769;47.998;7.788;2022-07-06T00:43:46;22.80;72.50
11426;DHT22;5769;47.998;7.788;2022-07-06T00:46:13;22.80;73.30
11426;DHT22;5769;47.998;7.788;2022-07-06T00:48:42;22.80;72.60
11426;DHT22;5769;47.998;7.788;2022-07-06T00:51:09;22.80;72.60
11426;DHT22;5769;47.998;7.788;2022-07-06T00:53:37;22.80;72.60
11426;DHT22;5769;47.998;7.788;2022-07-06T00:56:05;22.80;72.60
11426;DHT22;5769;47.998;7.788;2022-07-06T00:58:32;22.80;72.60
11426;DHT22;5769;47.998;7.788;2022-07-06T01:00:58;22.80;72.60
11426;DHT22;5769;47.998;7.788;2022-07-06T01:03:25;22.80;72.70
11426;DHT22;5769;47.998;7.788;2022-07-06T01:05:53;22.80;72.80
11426;DHT22;5769;47.998;7.788;2022-07-06T01:08:20;22.80;72.70
11426;DHT22;5769;47.998;7.788;2022-07-06T01:10:47;22.70;72.70
11426;DHT22;5769;47.998;7.788;2022-07-06T01:13:14;22.80;72.80
11426;DHT22;5769;47.998;7.788;2022-07-06T01:15:41;22.70;72.60
11426;DHT22;5769;47.998;7.788;2022-07-06T01:18:10;22.70;72.70
11426;DHT22;5769;47.998;7.788;2022-07-06T01:20:39;22.70;72.70
11426;DHT22;5769;47.998;7.788;2022-07-06T01:23:05;22.70;72.70
11426;DHT22;5769;47.998;7.788;2022-07-06T01:25:32;22.70;72.70
11426;DHT22;5769;47.998;7.788;2022-07-06T01:27:59;22.70;72.70
11426;DHT22;5769;47.998;7.788;2022-07-06T01:30:26;22.70;72.70
11426;DHT22;5769;47.998;7.788;2022-07-06T01:32:53;22.70;72.70
11426;DHT22;5769;47.998;7.788;2022-07-06T01:35:19;22.70;72.70
11426;DHT22;5769;47.998;7.788;2022-07-06T01:37:48;22.70;72.70
11426;DHT22;5769;47.998;7.788;2022-07-06T01:40:14;22.70;73.50
11426;DHT22;5769;47.998;7.788;2022-07-06T01:42:41;22.70;72.80
11426;DHT22;5769;47.998;7.788;2022-07-06T01:45:09;22.70;72.80
11426;DHT22;5769;47.998;7.788;2022-07-06T01:47:36;22.70;72.80
11426;DHT22;5769;47.998;7.788;2022-07-06T01:50:06;22.70;72.80
11426;DHT22;5769;47.998;7.788;2022-07-06T01:52:33;22.70;72.70
11426;DHT22;5769;47.998;7.788;2022-07-06T01:55:01;22.70;72.70
11426;DHT22;5769;47.998;7.788;2022-07-06T01:57:28;22.70;72.60
11426;DHT22;5769;47.998;7.788;2022-07-06T01:59:55;22.70;72.70
11426;DHT22;5769;47.998;7.788;2022-07-06T02:02:21;22.70;72.60
11426;DHT22;5769;47.998;7.788;2022-07-06T02:04:48;22.70;72.60
11426;DHT22;5769;47.998;7.788;2022-07-06T02:07:15;22.70;72.60
11426;DHT22;5769;47.998;7.788;2022-07-06T02:09:42;22.70;72.60
11426;DHT22;5769;47.998;7.788;2022-07-06T02:12:10;22.70;72.60
11426;DHT22;5769;47.998;7.788;2022-07-06T02:14:37;22.70;72.60
11426;DHT22;5769;47.998;7.788;2022-07-06T02:17:03;22.60;72.60
11426;DHT22;5769;47.998;7.788;2022-07-06T02:19:30;22.60;72.60
11426;DHT22;5769;47.998;7.788;2022-07-06T02:21:57;22.70;72.60
11426;DHT22;5769;47.998;7.788;2022-07-06T02:24:24;22.60;72.50
11426;DHT22;5769;47.998;7.788;2022-07-06T02:26:51;22.70;72.60
11426;DHT22;5769;47.998;7.788;2022-07-06T02:29:19;22.60;72.50
11426;DHT22;5769;47.998;7.788;2022-07-06T02:31:47;22.60;72.50
11426;DHT22;5769;47.998;7.788;2022-07-06T02:34:13;22.60;72.50
11426;DHT22;5769;47.998;7.788;2022-07-06T02:36:40;22.70;72.60
11426;DHT22;5769;47.998;7.788;2022-07-06T02:39:07;22.70;72.60
11426;DHT22;5769;47.998;7.788;2022-07-06T02:41:34;22.60;72.40
11426;DHT22;5769;47.998;7.788;2022-07-06T02:44:00;22.60;72.50
11426;DHT22;5769;47.998;7.788;2022-07-06T02:46:28;22.60;72.40
11426;DHT22;5769;47.998;7.788;2022-07-06T02:48:55;22.60;72.50
11426;DHT22;5769;47.998;7.788;2022-07-06T02:51:22;22.60;72.50
11426;DHT22;5769;47.998;7.788;2022-07-06T02:53:49;22.60;72.50
11426;DHT22;5769;47.998;7.788;2022-07-06T02:56:16;22.60;72.50
11426;DHT22;5769;47.998;7.788;2022-07-06T02:58:43;22.60;72.50
11426;DHT22;5769;47.998;7.788;2022-07-06T03:01:10;22.60;72.40
11426;DHT22;5769;47.998;7.788;2022-07-06T03:03:38;22.60;72.60
11426;DHT22;5769;47.998;7.788;2022-07-06T03:06:05;22.60;72.50
11426;DHT22;5769;47.998;7.788;2022-07-06T03:08:32;22.60;72.50
11426;DHT22;5769;47.998;7.788;2022-07-06T03:11:00;22.60;72.60
11426;DHT22;5769;47.998;7.788;2022-07-06T03:13:27;22.60;72.60
11426;DHT22;5769;47.998;7.788;2022-07-06T03:15:54;22.60;72.70
11426;DHT22;5769;47.998;7.788;2022-07-06T03:18:21;22.60;72.60
11426;DHT22;5769;47.998;7.788;2022-07-06T03:20:49;22.60;72.60
11426;DHT22;5769;47.998;7.788;2022-07-06T03:23:16;22.60;72.60
11426;DHT22;5769;47.998;7.788;2022-07-06T03:25:43;22.60;72.50
11426;DHT22;5769;47.998;7.788;2022-07-06T03:28:10;22.60;72.60
11426;DHT22;5769;47.998;7.788;2022-07-06T03:30:36;22.60;72.50
11426;DHT22;5769;47.998;7.788;2022-07-06T03:33:03;22.60;72.50
11426;DHT22;5769;47.998;7.788;2022-07-06T03:35:30;22.60;72.50
11426;DHT22;5769;47.998;7.788;2022-07-06T03:37:58;22.60;73.20
11426;DHT22;5769;47.998;7.788;2022-07-06T03:40:25;22.60;72.40
11426;DHT22;5769;47.998;7.788;2022-07-06T03:42:52;22.60;72.40
11426;DHT22;5769;47.998;7.788;2022-07-06T03:45:18;22.60;72.30
11426;DHT22;5769;47.998;7.788;2022-07-06T03:47:45;22.60;72.20
11426;DHT22;5769;47.998;7.788;2022-07-06T03:50:12;22.60;72.20
11426;DHT22;5769;47.998;7.788;2022-07-06T03:52:39;22.60;72.10
11426;DHT22;5769;47.998;7.788;2022-07-06T03:55:10;22.60;72.10
11426;DHT22;5769;47.998;7.788;2022-07-06T03:57:36;22.60;72.10
11426;DHT22;5769;47.998;7.788;2022-07-06T04:00:04;22.60;72.80
11426;DHT22;5769;47.998;7.788;2022-07-06T04:02:31;22.60;72.00
11426;DHT22;5769;47.998;7.788;2022-07-06T04:04:58;22.60;72.10
11426;DHT22;5769;47.998;7.788;2022-07-06T04:07:25;22.60;72.00
11426;DHT22;5769;47.998;7.788;2022-07-06T04:09:52;22.60;71.90
11426;DHT22;5769;47.998;7.788;2022-07-06T04:12:20;22.60;71.80
11426;DHT22;5769;47.998;7.788;2022-07-06T04:14:48;22.60;71.80
11426;DHT22;5769;47.998;7.788;2022-07-06T04:17:14;22.60;71.80
11426;DHT22;5769;47.998;7.788;2022-07-06T04:19:59;22.60;71.80
11426;DHT22;5769;47.998;7.788;2022-07-06T04:22:26;22.60;71.70
11426;DHT22;5769;47.998;7.788;2022-07-06T04:24:53;22.60;71.80
11426;DHT22;5769;47.998;7.788;2022-07-06T04:27:21;22.60;71.70
11426;DHT22;5769;47.998;7.788;2022-07-06T04:29:47;22.60;71.70
11426;DHT22;5769;47.998;7.788;2022-07-06T04:32:14;22.60;71.70
11426;DHT22;5769;47.998;7.788;2022-07-06T04:34:41;22.50;71.60
11426;DHT22;5769;47.998;7.788;2022-07-06T04:37:08;22.60;71.80
11426;DHT22;5769;47.998;7.788;2022-07-06T04:39:34;22.50;71.70
11426;DHT22;5769;47.998;7.788;2022-07-06T04:42:01;22.60;71.70
11426;DHT22;5769;47.998;7.788;2022-07-06T04:44:30;22.60;71.70
11426;DHT22;5769;47.998;7.788;2022-07-06T04:46:56;22.60;71.70
11426;DHT22;5769;47.998;7.788;2022-07-06T04:49:23;22.60;71.70
11426;DHT22;5769;47.998;7.788;2022-07-06T04:51:50;22.60;71.70
11426;DHT22;5769;47.998;7.788;2022-07-06T04:54:17;22.60;71.70
11426;DHT22;5769;47.998;7.788;2022-07-06T04:56:44;22.50;71.50
11426;DHT22;5769;47.998;7.788;2022-07-06T04:59:12;22.50;71.50
11426;DHT22;5769;47.998;7.788;2022-07-06T05:01:40;22.50;71.60
11426;DHT22;5769;47.998;7.788;2022-07-06T05:04:07;22.50;71.50
11426;DHT22;5769;47.998;7.788;2022-07-06T05:06:33;22.50;71.50
11426;DHT22;5769;47.998;7.788;2022-07-06T05:09:00;22.50;72.20
11426;DHT22;5769;47.998;7.788;2022-07-06T05:11:27;22.50;71.00
11426;DHT22;5769;47.998;7.788;2022-07-06T05:13:54;22.50;70.80
11426;DHT22;5769;47.998;7.788;2022-07-06T05:16:21;22.50;70.80
11426;DHT22;5769;47.998;7.788;2022-07-06T05:18:49;22.50;70.80
11426;DHT22;5769;47.998;7.788;2022-07-06T05:21:16;22.50;71.00
11426;DHT22;5769;47.998;7.788;2022-07-06T05:23:43;22.50;71.10
11426;DHT22;5769;47.998;7.788;2022-07-06T05:26:09;22.50;71.10
11426;DHT22;5769;47.998;7.788;2022-07-06T05:28:36;22.50;71.10
11426;DHT22;5769;47.998;7.788;2022-07-06T05:31:03;22.50;71.10
11426;DHT22;5769;47.998;7.788;2022-07-06T05:33:30;22.50;71.30
11426;DHT22;5769;47.998;7.788;2022-07-06T05:35:58;22.50;71.10
11426;DHT22;5769;47.998;7.788;2022-07-06T05:38:25;22.50;70.80
11426;DHT22;5769;47.998;7.788;2022-07-06T05:40:52;22.50;70.70
11426;DHT22;5769;47.998;7.788;2022-07-06T05:43:19;22.50;70.60
11426;DHT22;5769;47.998;7.788;2022-07-06T05:45:45;22.50;70.00
11426;DHT22;5769;47.998;7.788;2022-07-06T05:48:12;22.50;69.70
11426;DHT22;5769;47.998;7.788;2022-07-06T05:50:58;22.50;69.60
11426;DHT22;5769;47.998;7.788;2022-07-06T05:53:25;22.50;69.50
11426;DHT22;5769;47.998;7.788;2022-07-06T05:55:52;22.50;69.40
11426;DHT22;5769;47.998;7.788;2022-07-06T05:58:19;22.50;69.60
11426;DHT22;5769;47.998;7.788;2022-07-06T06:00:46;22.50;69.70
11426;DHT22;5769;47.998;7.788;2022-07-06T06:03:12;22.50;69.80
11426;DHT22;5769;47.998;7.788;2022-07-06T06:05:39;22.50;69.80
11426;DHT22;5769;47.998;7.788;2022-07-06T06:08:07;22.50;69.80
11426;DHT22;5769;47.998;7.788;2022-07-06T06:10:34;22.50;70.00
11426;DHT22;5769;47.998;7.788;2022-07-06T06:13:01;22.50;70.10
11426;DHT22;5769;47.998;7.788;2022-07-06T06:15:28;22.50;70.10
11426;DHT22;5769;47.998;7.788;2022-07-06T06:17:54;22.50;70.10
11426;DHT22;5769;47.998;7.788;2022-07-06T06:20:21;22.50;70.00
11426;DHT22;5769;47.998;7.788;2022-07-06T06:22:49;22.50;69.60
11426;DHT22;5769;47.998;7.788;2022-07-06T06:25:19;22.40;69.60
11426;DHT22;5769;47.998;7.788;2022-07-06T06:27:46;22.40;69.50
11426;DHT22;5769;47.998;7.788;2022-07-06T06:30:13;22.50;69.40
11426;DHT22;5769;47.998;7.788;2022-07-06T06:32:40;22.40;69.10
11426;DHT22;5769;47.998;7.788;2022-07-06T06:35:07;22.40;69.30
11426;DHT22;5769;47.998;7.788;2022-07-06T06:37:34;22.50;68.90
11426;DHT22;5769;47.998;7.788;2022-07-06T06:40:02;22.40;68.60
11426;DHT22;5769;47.998;7.788;2022-07-06T06:42:30;22.40;69.00
11426;DHT22;5769;47.998;7.788;2022-07-06T06:44:57;22.40;69.10
11426;DHT22;5769;47.998;7.788;2022-07-06T06:47:24;22.40;69.00
11426;DHT22;5769;47.998;7.788;2022-07-06T06:49:51;22.40;68.70
11426;DHT22;5769;47.998;7.788;2022-07-06T06:52:18;22.40;68.70
11426;DHT22;5769;47.998;7.788;2022-07-06T06:54:44;22.40;68.70
11426;DHT22;5769;47.998;7.788;2022-07-06T06:57:11;22.40;68.40
11426;DHT22;5769;47.998;7.788;2022-07-06T06:59:39;22.40;68.50
11426;DHT22;5769;47.998;7.788;2022-07-06T07:02:06;22.40;68.40
11426;DHT22;5769;47.998;7.788;2022-07-06T07:04:33;22.40;68.40
11426;DHT22;5769;47.998;7.788;2022-07-06T07:06:59;22.40;68.30
11426;DHT22;5769;47.998;7.788;2022-07-06T07:09:26;22.40;68.30
11426;DHT22;5769;47.998;7.788;2022-07-06T07:11:53;22.40;68.20
11426;DHT22;5769;47.998;7.788;2022-07-06T07:14:20;22.40;68.20
11426;DHT22;5769;47.998;7.788;2022-07-06T07:16:48;22.40;68.00
11426;DHT22;5769;47.998;7.788;2022-07-06T07:19:15;22.40;68.10
11426;DHT22;5769;47.998;7.788;2022-07-06T07:21:42;22.40;67.90
11426;DHT22;5769;47.998;7.788;2022-07-06T07:24:09;22.40;67.90
11426;DHT22;5769;47.998;7.788;2022-07-06T07:26:36;22.40;68.00
11426;DHT22;5769;47.998;7.788;2022-07-06T07:29:03;22.40;67.90
11426;DHT22;5769;47.998;7.788;2022-07-06T07:31:30;22.40;67.90
11426;DHT22;5769;47.998;7.788;2022-07-06T07:33:58;22.40;67.90
11426;DHT22;5769;47.998;7.788;2022-07-06T07:36:25;22.40;67.90
11426;DHT22;5769;47.998;7.788;2022-07-06T07:38:52;22.40;67.90
11426;DHT22;5769;47.998;7.788;2022-07-06T07:41:19;22.40;67.90
11426;DHT22;5769;47.998;7.788;2022-07-06T07:43:45;22.40;67.70
11426;DHT22;5769;47.998;7.788;2022-07-06T07:46:12;22.40;67.80
11426;DHT22;5769;47.998;7.788;2022-07-06T07:48:39;22.40;68.00
11426;DHT22;5769;47.998;7.788;2022-07-06T07:51:07;22.30;67.70
11426;DHT22;5769;47.998;7.788;2022-07-06T07:53:34;22.40;67.90
11426;DHT22;5769;47.998;7.788;2022-07-06T07:56:01;22.40;68.00
11426;DHT22;5769;47.998;7.788;2022-07-06T07:58:28;22.40;68.00
11426;DHT22;5769;47.998;7.788;2022-07-06T08:00:55;22.40;68.20
11426;DHT22;5769;47.998;7.788;2022-07-06T08:03:22;22.40;68.10
11426;DHT22;5769;47.998;7.788;2022-07-06T08:05:48;22.40;68.00
11426;DHT22;5769;47.998;7.788;2022-07-06T08:08:17;22.40;68.20
11426;DHT22;5769;47.998;7.788;2022-07-06T08:10:44;22.40;68.20
11426;DHT22;5769;47.998;7.788;2022-07-06T08:13:11;22.40;68.30
11426;DHT22;5769;47.998;7.788;2022-07-06T08:15:40;22.40;68.40
11426;DHT22;5769;47.998;7.788;2022-07-06T08:18:07;22.40;68.30
11426;DHT22;5769;47.998;7.788;2022-07-06T08:20:34;22.40;68.40
11426;DHT22;5769;47.998;7.788;2022-07-06T08:23:01;22.40;68.40
11426;DHT22;5769;47.998;7.788;2022-07-06T08:25:30;22.40;68.50
11426;DHT22;5769;47.998;7.788;2022-07-06T08:27:56;22.40;68.40
11426;DHT22;5769;47.998;7.788;2022-07-06T08:30:23;22.40;68.30
11426;DHT22;5769;47.998;7.788;2022-07-06T08:32:50;22.40;68.40
11426;DHT22;5769;47.998;7.788;2022-07-06T08:35:17;22.40;68.30
11426;DHT22;5769;47.998;7.788;2022-07-06T08:37:44;22.40;68.40
11426;DHT22;5769;47.998;7.788;2022-07-06T08:40:11;22.40;68.50
11426;DHT22;5769;47.998;7.788;2022-07-06T08:42:39;22.40;68.60
11426;DHT22;5769;47.998;7.788;2022-07-06T08:45:07;22.40;68.60
11426;DHT22;5769;47.998;7.788;2022-07-06T08:47:35;22.40;68.60
11426;DHT22;5769;47.998;7.788;2022-07-06T08:50:03;22.40;68.70
11426;DHT22;5769;47.998;7.788;2022-07-06T08:52:31;22.40;68.70
11426;DHT22;5769;47.998;7.788;2022-07-06T08:54:58;22.40;68.70
11426;DHT22;5769;47.998;7.788;2022-07-06T08:57:25;22.40;68.80
11426;DHT22;5769;47.998;7.788;2022-07-06T08:59:54;22.30;68.70
11426;DHT22;5769;47.998;7.788;2022-07-06T09:02:23;22.40;68.70
11426;DHT22;5769;47.998;7.788;2022-07-06T09:04:51;22.40;69.50
11426;DHT22;5769;47.998;7.788;2022-07-06T09:07:20;22.30;68.70
11426;DHT22;5769;47.998;7.788;2022-07-06T09:09:49;22.40;68.70
11426;DHT22;5769;47.998;7.788;2022-07-06T09:12:16;22.40;68.70
11426;DHT22;5769;47.998;7.788;2022-07-06T09:14:43;22.40;68.70
11426;DHT22;5769;47.998;7.788;2022-07-06T09:17:12;22.40;68.80
11426;DHT22;5769;47.998;7.788;2022-07-06T09:19:39;22.40;68.80
11426;DHT22;5769;47.998;7.788;2022-07-06T09:22:06;22.40;68.80
11426;DHT22;5769;47.998;7.788;2022-07-06T09:24:38;22.40;68.70
11426;DHT22;5769;47.998;7.788;2022-07-06T09:27:16;22.40;68.80
11426;DHT22;5769;47.998;7.788;2022-07-06T09:29:45;22.30;68.70
11426;DHT22;5769;47.998;7.788;2022-07-06T09:32:19;22.40;68.80
11426;DHT22;5769;47.998;7.788;2022-07-06T09:34:46;22.40;68.80
11426;DHT22;5769;47.998;7.788;2022-07-06T09:37:14;22.40;68.80
11426;DHT22;5769;47.998;7.788;2022-07-06T09:39:42;22.40;68.80
11426;DHT22;5769;47.998;7.788;2022-07-06T09:42:09;22.40;68.80
11426;DHT22;5769;47.998;7.788;2022-07-06T09:44:38;22.40;68.80
11426;DHT22;5769;47.998;7.788;2022-07-06T09:47:06;22.40;68.90
11426;DHT22;5769;47.998;7.788;2022-07-06T09:49:35;22.40;68.70
11426;DHT22;5769;47.998;7.788;2022-07-06T09:52:04;22.40;68.70
11426;DHT22;5769;47.998;7.788;2022-07-06T09:54:32;22.40;68.70
11426;DHT22;5769;47.998;7.788;2022-07-06T09:56:59;22.40;68.80
11426;DHT22;5769;47.998;7.788;2022-07-06T09:59:27;22.40;68.80
11426;DHT22;5769;47.998;7.788;2022-07-06T10:01:56;22.40;68.70
11426;DHT22;5769;47.998;7.788;2022-07-06T10:04:24;22.40;68.60
11426;DHT22;5769;47.998;7.788;2022-07-06T10:06:52;22.40;68.70
11426;DHT22;5769;47.998;7.788;2022-07-06T10:09:21;22.40;68.60
11426;DHT22;5769;47.998;7.788;2022-07-06T10:11:50;22.40;68.60
11426;DHT22;5769;47.998;7.788;2022-07-06T10:14:20;22.40;68.60
11426;DHT22;5769;47.998;7.788;2022-07-06T10:16:48;22.40;68.50
11426;DHT22;5769;47.998;7.788;2022-07-06T10:19:16;22.40;68.40
11426;DHT22;5769;47.998;7.788;2022-07-06T10:21:44;22.40;68.50
11426;DHT22;5769;47.998;7.788;2022-07-06T10:24:13;22.40;68.40
11426;DHT22;5769;47.998;7.788;2022-07-06T10:26:41;22.40;68.40
11426;DHT22;5769;47.998;7.788;2022-07-06T10:29:08;22.40;68.30
11426;DHT22;5769;47.998;7.788;2022-07-06T10:31:38;22.40;68.10
11426;DHT22;5769;47.998;7.788;2022-07-06T10:34:06;22.40;68.00
11426;DHT22;5769;47.998;7.788;2022-07-06T10:36:37;22.40;68.00
11426;DHT22;5769;47.998;7.788;2022-07-06T10:39:04;22.40;68.00
11426;DHT22;5769;47.998;7.788;2022-07-06T10:41:53;22.40;67.90
11426;DHT22;5769;47.998;7.788;2022-07-06T10:44:21;22.40;68.10
11426;DHT22;5769;47.998;7.788;2022-07-06T10:46:53;22.40;68.00
11426;DHT22;5769;47.998;7.788;2022-07-06T10:49:20;22.40;68.00
11426;DHT22;5769;47.998;7.788;2022-07-06T10:51:48;22.40;68.10
11426;DHT22;5769;47.998;7.788;2022-07-06T10:54:17;22.40;68.10
11426;DHT22;5769;47.998;7.788;2022-07-06T10:56:45;22.40;68.10
11426;DHT22;5769;47.998;7.788;2022-07-06T10:59:15;22.40;68.30
11426;DHT22;5769;47.998;7.788;2022-07-06T11:02:14;22.40;68.40
11426;DHT22;5769;47.998;7.788;2022-07-06T11:04:41;22.40;68.30
11426;DHT22;5769;47.998;7.788;2022-07-06T11:07:10;22.40;68.10
11426;DHT22;5769;47.998;7.788;2022-07-06T11:09:37;22.40;68.30
11426;DHT22;5769;47.998;7.788;2022-07-06T11:12:17;22.40;68.20
11426;DHT22;5769;47.998;7.788;2022-07-06T11:14:47;22.40;68.10
11426;DHT22;5769;47.998;7.788;2022-07-06T11:17:14;22.40;67.80
11426;DHT22;5769;47.998;7.788;2022-07-06T11:19:49;22.40;68.00
11426;DHT22;5769;47.998;7.788;2022-07-06T11:22:17;22.40;68.00
11426;DHT22;5769;47.998;7.788;2022-07-06T11:24:45;22.40;67.90
11426;DHT22;5769;47.998;7.788;2022-07-06T11:27:13;22.40;67.90
11426;DHT22;5769;47.998;7.788;2022-07-06T11:29:40;22.40;67.80
11426;DHT22;5769;47.998;7.788;2022-07-06T11:32:09;22.40;67.80
11426;DHT22;5769;47.998;7.788;2022-07-06T11:34:37;22.40;67.70
11426;DHT22;5769;47.998;7.788;2022-07-06T11:37:05;22.40;68.20
11426;DHT22;5769;47.998;7.788;2022-07-06T11:39:34;22.40;67.60
11426;DHT22;5769;47.998;7.788;2022-07-06T11:42:02;22.40;67.60
11426;DHT22;5769;47.998;7.788;2022-07-06T11:44:30;22.40;67.80
11426;DHT22;5769;47.998;7.788;2022-07-06T11:46:57;22.40;67.90
11426;DHT22;5769;47.998;7.788;2022-07-06T11:49:28;22.40;67.90
11426;DHT22;5769;47.998;7.788;2022-07-06T11:51:55;22.40;67.90
11426;DHT22;5769;47.998;7.788;2022-07-06T11:54:23;22.40;68.00
11426;DHT22;5769;47.998;7.788;2022-07-06T11:56:51;22.40;67.90
11426;DHT22;5769;47.998;7.788;2022-07-06T11:59:21;22.40;67.60
11426;DHT22;5769;47.998;7.788;2022-07-06T12:01:48;22.40;68.00
11426;DHT22;5769;47.998;7.788;2022-07-06T12:04:15;22.40;68.00
11426;DHT22;5769;47.998;7.788;2022-07-06T12:06:44;22.40;67.90
11426;DHT22;5769;47.998;7.788;2022-07-06T12:09:12;22.40;67.70
11426;DHT22;5769;47.998;7.788;2022-07-06T12:11:39;22.50;68.00
11426;DHT22;5769;47.998;7.788;2022-07-06T12:14:13;22.50;68.00
11426;DHT22;5769;47.998;7.788;2022-07-06T12:16:40;22.50;68.00
11426;DHT22;5769;47.998;7.788;2022-07-06T12:19:07;22.50;67.80
11426;DHT22;5769;47.998;7.788;2022-07-06T12:21:42;22.50;68.30
11426;DHT22;5769;47.998;7.788;2022-07-06T12:24:16;22.50;68.40
11426;DHT22;5769;47.998;7.788;2022-07-06T12:26:43;22.60;68.50
11426;DHT22;5769;47.998;7.788;2022-07-06T12:29:12;22.60;68.60
11426;DHT22;5769;47.998;7.788;2022-07-06T12:31:40;22.60;69.00
11426;DHT22;5769;47.998;7.788;2022-07-06T12:34:13;22.70;69.40
11426;DHT22;5769;47.998;7.788;2022-07-06T12:36:45;22.60;69.20
11426;DHT22;5769;47.998;7.788;2022-07-06T12:39:16;22.70;69.60
11426;DHT22;5769;47.998;7.788;2022-07-06T12:41:48;22.70;69.00
11426;DHT22;5769;47.998;7.788;2022-07-06T12:44:17;22.70;69.20
11426;DHT22;5769;47.998;7.788;2022-07-06T12:46:44;22.60;69.00
11426;DHT22;5769;47.998;7.788;2022-07-06T12:49:15;22.60;68.00
11426;DHT22;5769;47.998;7.788;2022-07-06T12:51:56;22.60;68.50
11426;DHT22;5769;47.998;7.788;2022-07-06T12:54:26;22.60;68.60
11426;DHT22;5769;47.998;7.788;2022-07-06T12:57:06;22.70;68.70
11426;DHT22;5769;47.998;7.788;2022-07-06T12:59:35;22.70;68.80
11426;DHT22;5769;47.998;7.788;2022-07-06T13:02:03;22.70;69.50
11426;DHT22;5769;47.998;7.788;2022-07-06T13:04:31;22.90;70.20
11426;DHT22;5769;47.998;7.788;2022-07-06T13:06:58;22.80;70.00
11426;DHT22;5769;47.998;7.788;2022-07-06T13:09:27;22.80;69.50
11426;DHT22;5769;47.998;7.788;2022-07-06T13:11:54;22.80;69.30
11426;DHT22;5769;47.998;7.788;2022-07-06T13:14:20;22.80;69.70
11426;DHT22;5769;47.998;7.788;2022-07-06T13:16:47;22.80;69.90
11426;DHT22;5769;47.998;7.788;2022-07-06T13:19:15;22.80;69.90
11426;DHT22;5769;47.998;7.788;2022-07-06T13:21:42;22.80;70.00
11426;DHT22;5769;47.998;7.788;2022-07-06T13:24:10;22.80;70.20
11426;DHT22;5769;47.998;7.788;2022-07-06T13:26:38;22.90;70.40
11426;DHT22;5769;47.998;7.788;2022-07-06T13:29:05;22.90;70.50
11426;DHT22;5769;47.998;7.788;2022-07-06T13:31:32;22.80;69.80
11426;DHT22;5769;47.998;7.788;2022-07-06T13:33:59;22.80;69.90
11426;DHT22;5769;47.998;7.788;2022-07-06T13:36:26;22.90;69.60
11426;DHT22;5769;47.998;7.788;2022-07-06T13:38:52;22.90;69.70
11426;DHT22;5769;47.998;7.788;2022-07-06T13:41:19;22.90;69.70
11426;DHT22;5769;47.998;7.788;2022-07-06T13:43:47;22.90;69.10
11426;DHT22;5769;47.998;7.788;2022-07-06T13:46:14;22.90;69.50
11426;DHT22;5769;47.998;7.788;2022-07-06T13:48:42;22.90;69.30
11426;DHT22;5769;47.998;7.788;2022-07-06T13:51:09;22.90;68.80
11426;DHT22;5769;47.998;7.788;2022-07-06T13:53:36;22.90;69.00
11426;DHT22;5769;47.998;7.788;2022-07-06T13:56:04;22.90;69.10
11426;DHT22;5769;47.998;7.788;2022-07-06T13:58:30;22.90;69.30
11426;DHT22;5769;47.998;7.788;2022-07-06T14:00:58;22.90;69.20
11426;DHT22;5769;47.998;7.788;2022-07-06T14:03:25;22.90;69.50
11426;DHT22;5769;47.998;7.788;2022-07-06T14:05:55;22.90;69.20
11426;DHT22;5769;47.998;7.788;2022-07-06T14:08:22;22.90;69.30
11426;DHT22;5769;47.998;7.788;2022-07-06T14:10:49;22.90;69.40
11426;DHT22;5769;47.998;7.788;2022-07-06T14:13:15;22.90;69.40
11426;DHT22;5769;47.998;7.788;2022-07-06T14:15:42;22.90;69.30
11426;DHT22;5769;47.998;7.788;2022-07-06T14:18:10;22.90;69.40
11426;DHT22;5769;47.998;7.788;2022-07-06T14:20:37;22.90;68.80
11426;DHT22;5769;47.998;7.788;2022-07-06T14:23:04;22.90;68.50
11426;DHT22;5769;47.998;7.788;2022-07-06T14:25:31;22.90;68.40
11426;DHT22;5769;47.998;7.788;2022-07-06T14:27:57;22.90;68.80
11426;DHT22;5769;47.998;7.788;2022-07-06T14:30:24;22.90;68.60
11426;DHT22;5769;47.998;7.788;2022-07-06T14:32:51;22.90;68.50
11426;DHT22;5769;47.998;7.788;2022-07-06T14:35:19;22.90;68.60
11426;DHT22;5769;47.998;7.788;2022-07-06T14:37:47;22.90;68.70
11426;DHT22;5769;47.998;7.788;2022-07-06T14:40:14;22.90;68.80
11426;DHT22;5769;47.998;7.788;2022-07-06T14:42:40;22.90;69.10
11426;DHT22;5769;47.998;7.788;2022-07-06T14:45:07;22.90;69.10
11426;DHT22;5769;47.998;7.788;2022-07-06T14:47:34;23.00;69.20
11426;DHT22;5769;47.998;7.788;2022-07-06T14:50:02;23.00;69.20
11426;DHT22;5769;47.998;7.788;2022-07-06T14:52:31;22.90;69.00
11426;DHT22;5769;47.998;7.788;2022-07-06T14:54:57;23.00;69.20
11426;DHT22;5769;47.998;7.788;2022-07-06T14:57:25;23.00;69.20
11426;DHT22;5769;47.998;7.788;2022-07-06T14:59:51;22.90;69.10
11426;DHT22;5769;47.998;7.788;2022-07-06T15:02:19;23.00;69.20
11426;DHT22;5769;47.998;7.788;2022-07-06T15:04:46;23.00;69.10
11426;DHT22;5769;47.998;7.788;2022-07-06T15:07:13;22.90;69.10
11426;DHT22;5769;47.998;7.788;2022-07-06T15:09:41;23.00;69.10
11426;DHT22;5769;47.998;7.788;2022-07-06T15:12:08;23.00;69.20
11426;DHT22;5769;47.998;7.788;2022-07-06T15:14:35;23.00;69.20
11426;DHT22;5769;47.998;7.788;2022-07-06T15:17:02;23.00;69.20
11426;DHT22;5769;47.998;7.788;2022-07-06T15:19:29;23.00;69.30
11426;DHT22;5769;47.998;7.788;2022-07-06T15:21:56;23.00;69.30
11426;DHT22;5769;47.998;7.788;2022-07-06T15:24:22;23.00;69.20
11426;DHT22;5769;47.998;7.788;2022-07-06T15:26:51;23.00;69.30
11426;DHT22;5769;47.998;7.788;2022-07-06T15:29:18;23.00;69.30
11426;DHT22;5769;47.998;7.788;2022-07-06T15:31:45;23.00;69.30
11426;DHT22;5769;47.998;7.788;2022-07-06T15:34:11;23.00;69.30
11426;DHT22;5769;47.998;7.788;2022-07-06T15:36:38;23.00;69.30
11426;DHT22;5769;47.998;7.788;2022-07-06T15:39:19;23.00;69.30
11426;DHT22;5769;47.998;7.788;2022-07-06T15:41:46;23.00;69.30
11426;DHT22;5769;47.998;7.788;2022-07-06T15:44:14;23.00;69.30
11426;DHT22;5769;47.998;7.788;2022-07-06T15:46:41;23.00;69.40
11426;DHT22;5769;47.998;7.788;2022-07-06T15:49:08;23.00;69.30